Time;durP1;ratioP1;P1;durP2;ratioP2;P2;SDS_P1;SDS_P2;PMS_P1;PMS_P2;Temp;Humidity;BMP_temperature;BMP_pressure;BME280_temperature;BME280_humidity;BME280_pressure;Samples;Min_cycle;Max_cycle;Signal;HPM_P1;HPM_P2
2023/10/18 00:01:20;;;;;;;26.20;15.80;;;;;;;-0.09;100.00;97645.29;110106;1243;60559;-61
2023/10/18 00:03:54;;;;;;;20.80;14.50;;;;;;;-0.17;100.00;97643.61;110271;1241;71462;-61
2023/10/18 00:06:26;;;;;;;22.40;15.10;;;;;;;-0.24;100.00;97642.96;110323;1246;69260;-60
2023/10/18 00:08:59;;;;;;;21.80;13.60;;;;;;;-0.31;100.00;97642.61;110371;1241;69218;-60
2023/10/18 00:11:32;;;;;;;22.80;14.20;;;;;;;-0.34;100.00;97642.86;110232;1241;60548;-60
2023/10/18 00:14:04;;;;;;;20.90;12.70;;;;;;;-0.37;100.00;97640.19;110138;1244;60500;-60
2023/10/18 00:16:35;;;;;;;16.40;11.30;;;;;;;-0.39;100.00;97641.98;110129;1243;72003;-60
2023/10/18 00:19:08;;;;;;;15.80;10.00;;;;;;;-0.41;100.00;97643.22;110167;1242;68598;-60
2023/10/18 00:21:41;;;;;;;17.30;11.60;;;;;;;-0.43;100.00;97641.71;110266;1243;68560;-60
2023/10/18 00:24:15;;;;;;;17.90;10.80;;;;;;;-0.42;100.00;97642.02;110149;1245;60490;-61
2023/10/18 00:26:49;;;;;;;17.50;10.50;;;;;;;-0.43;100.00;97643.09;110171;1244;60412;-60
2023/10/18 00:29:22;;;;;;;17.50;11.00;;;;;;;-0.43;100.00;97640.50;110173;1241;71996;-61
2023/10/18 00:31:55;;;;;;;18.50;10.90;;;;;;;-0.39;100.00;97636.13;110156;1243;69234;-59
2023/10/18 00:34:36;;;;;;;16.20;10.00;;;;;;;-0.37;100.00;97638.14;110141;1241;69301;-60
2023/10/18 00:37:17;;;;;;;;;;;;;;;-0.37;100.00;97633.17;110176;1243;60499;-61
2023/10/18 00:39:55;;;;;;;15.90;9.50;;;;;;;-0.37;100.00;97629.39;110163;1241;60466;-59
2023/10/18 00:42:35;;;;;;;10.90;7.00;;;;;;;-0.38;100.00;97627.36;110108;1244;72237;-60
2023/10/18 00:45:10;;;;;;;12.60;8.10;;;;;;;-0.39;100.00;97628.94;110088;1244;69235;-59
2023/10/18 00:47:46;;;;;;;13.80;7.70;;;;;;;-0.42;100.00;97634.66;110030;1241;68557;-58
2023/10/18 00:50:27;;;;;;;15.10;10.00;;;;;;;-0.46;100.00;97633.23;110116;1242;60558;-59
2023/10/18 00:53:01;;;;;;;13.50;9.30;;;;;;;-0.52;100.00;97634.59;110107;1241;60513;-59
2023/10/18 00:55:33;;;;;;;17.10;10.60;;;;;;;-0.56;100.00;97632.61;110183;1241;72292;-59
2023/10/18 00:58:12;;;;;;;17.50;11.10;;;;;;;-0.59;100.00;97633.71;110164;1241;67707;-59
2023/10/18 01:00:44;;;;;;;16.00;11.20;;;;;;;-0.62;100.00;97637.04;110099;1244;69276;-60
2023/10/18 01:03:38;;;;;;;13.30;8.40;;;;;;;-0.65;100.00;97633.85;110169;1241;60526;-57
2023/10/18 01:06:17;;;;;;;16.70;10.40;;;;;;;-0.66;100.00;97633.70;110209;1241;60547;-60
2023/10/18 01:08:50;;;;;;;14.00;9.00;;;;;;;-0.69;100.00;97631.07;110218;1242;72218;-61
2023/10/18 01:11:28;;;;;;;17.00;11.10;;;;;;;-0.71;100.00;97626.81;110200;1241;69259;-58
2023/10/18 01:14:04;;;;;;;13.00;8.80;;;;;;;-0.73;100.00;97625.67;110186;1242;69297;-62
2023/10/18 01:16:36;;;;;;;13.00;8.00;;;;;;;-0.75;100.00;97625.89;110223;1242;60509;-59
2023/10/18 01:19:08;;;;;;;13.50;8.00;;;;;;;-0.77;100.00;97624.40;110233;1244;60560;-59
2023/10/18 01:21:51;;;;;;;14.20;9.60;;;;;;;-0.79;100.00;97628.05;110200;1240;71280;-58
2023/10/18 01:24:35;;;;;;;13.50;8.40;;;;;;;-0.83;100.00;97625.41;110182;1241;68431;-58
2023/10/18 01:27:08;;;;;;;10.20;7.70;;;;;;;-0.87;100.00;97623.27;110147;1241;69186;-58
2023/10/18 01:29:39;;;;;;;11.50;7.00;;;;;;;-0.89;100.00;97623.32;110154;1243;60494;-57
2023/10/18 01:32:13;;;;;;;10.10;7.20;;;;;;;-0.91;100.00;97623.02;110249;1242;60467;-59
2023/10/18 01:34:45;;;;;;;9.60;7.10;;;;;;;-0.90;100.00;97622.33;110196;1242;72181;-59
2023/10/18 01:37:20;;;;;;;8.90;6.20;;;;;;;-0.87;100.00;97622.94;110226;1241;68565;-62
2023/10/18 01:39:57;;;;;;;10.30;7.50;;;;;;;-0.88;100.00;97619.03;110142;1244;67630;-61
2023/10/18 01:42:30;;;;;;;9.40;6.60;;;;;;;-0.85;100.00;97621.67;110235;1242;60500;-60
2023/10/18 01:45:03;;;;;;;10.00;6.10;;;;;;;-0.83;100.00;97624.05;110231;1242;60477;-60
2023/10/18 01:47:35;;;;;;;9.30;5.80;;;;;;;-0.83;100.00;97630.38;110260;1242;71059;-59
2023/10/18 01:50:23;;;;;;;9.00;6.20;;;;;;;-0.86;100.00;97629.95;110220;1243;69293;-60
2023/10/18 01:52:54;;;;;;;9.70;6.20;;;;;;;-0.89;100.00;97630.51;110170;1245;69287;-59
2023/10/18 01:55:31;;;;;;;9.30;5.40;;;;;;;-0.91;100.00;97629.02;110130;1244;60554;-59
2023/10/18 01:58:02;;;;;;;6.90;4.70;;;;;;;-0.92;100.00;97632.98;110134;1244;60430;-60
2023/10/18 02:00:37;;;;;;;8.60;6.20;;;;;;;-0.92;100.00;97636.42;110173;1244;71469;-59
2023/10/18 02:03:11;;;;;;;10.80;7.70;;;;;;;-0.95;100.00;97641.61;110202;1243;68409;-60
2023/10/18 02:05:48;;;;;;;8.60;5.60;;;;;;;-0.98;100.00;97639.98;110230;1241;67364;-59
2023/10/18 02:08:20;;;;;;;8.30;5.70;;;;;;;-1.02;100.00;97636.64;110152;1245;60495;-59
2023/10/18 02:10:53;;;;;;;8.30;5.30;;;;;;;-1.06;100.00;97638.11;110191;1242;60546;-58
2023/10/18 02:13:24;;;;;;;9.90;6.80;;;;;;;-1.09;100.00;97634.06;110217;1241;72245;-59
2023/10/18 02:15:57;;;;;;;12.30;6.80;;;;;;;-1.12;100.00;97632.59;110143;1244;69857;-59
2023/10/18 02:18:30;;;;;;;6.30;4.90;;;;;;;-1.16;100.00;97634.55;110206;1245;69445;-59
2023/10/18 02:21:03;;;;;;;10.10;5.40;;;;;;;-1.17;100.00;97636.29;110200;1243;60519;-59
2023/10/18 02:23:35;;;;;;;8.60;5.50;;;;;;;-1.18;100.00;97632.90;110117;1247;60481;-59
2023/10/18 02:29:11;;;;;;;9.80;5.70;;;;;;;-1.22;100.00;97631.25;109981;1241;68568;-60
2023/10/18 02:31:43;;;;;;;7.40;6.00;;;;;;;-1.24;100.00;97633.55;110176;1245;69497;-59
2023/10/18 02:34:18;;;;;;;10.30;6.30;;;;;;;-1.26;100.00;97632.89;110171;1243;60623;-58
2023/10/18 02:37:01;;;;;;;8.40;6.20;;;;;;;-1.26;100.00;97628.80;110232;1242;60488;-59
2023/10/18 02:39:36;;;;;;;8.50;5.70;;;;;;;-1.28;100.00;97634.67;110236;1241;71470;-59
2023/10/18 02:42:18;;;;;;;8.70;6.20;;;;;;;-1.31;100.00;97633.88;110221;1243;69132;-59
2023/10/18 02:44:50;;;;;;;7.30;5.30;;;;;;;-1.37;100.00;97629.72;110201;1241;69185;-58
2023/10/18 02:47:23;;;;;;;8.20;4.90;;;;;;;-1.40;100.00;97633.55;110170;1241;60566;-59
2023/10/18 02:49:53;;;;;;;10.10;5.40;;;;;;;-1.44;100.00;97632.60;110201;1242;60444;-59
2023/10/18 02:52:30;;;;;;;7.90;5.40;;;;;;;-1.45;100.00;97628.36;110253;1242;70514;-59
2023/10/18 02:55:02;;;;;;;8.20;5.00;;;;;;;-1.47;100.00;97628.08;110236;1242;69313;-59
2023/10/18 02:57:33;;;;;;;8.60;5.50;;;;;;;-1.48;100.00;97628.58;110210;1242;69710;-58
2023/10/18 03:00:10;;;;;;;8.20;4.70;;;;;;;-1.48;100.00;97629.79;110227;1241;60541;-59
2023/10/18 03:02:41;;;;;;;7.60;4.60;;;;;;;-1.50;100.00;97628.82;110203;1248;60521;-58
2023/10/18 03:05:12;;;;;;;6.40;4.10;;;;;;;-1.54;100.00;97631.11;110131;1242;72170;-59
2023/10/18 03:07:43;;;;;;;6.80;4.50;;;;;;;-1.58;100.00;97632.38;110166;1243;68525;-59
2023/10/18 03:10:27;;;;;;;10.50;5.90;;;;;;;-1.61;100.00;97632.27;110127;1243;69363;-59
2023/10/18 03:13:01;;;;;;;6.60;4.80;;;;;;;-1.61;100.00;97630.94;110268;1241;60473;-59
2023/10/18 03:15:31;;;;;;;5.60;4.00;;;;;;;-1.61;100.00;97634.85;110322;1241;60474;-59
2023/10/18 03:18:03;;;;;;;6.00;4.50;;;;;;;-1.62;100.00;97635.21;110289;1242;71832;-59
2023/10/18 03:20:37;;;;;;;8.70;6.50;;;;;;;-1.65;100.00;97634.06;110341;1241;69633;-58
2023/10/18 03:23:07;;;;;;;8.50;5.50;;;;;;;-1.68;100.00;97631.75;110309;1242;67543;-59
2023/10/18 03:25:37;;;;;;;;;;;;;;;-1.71;100.00;97632.83;110182;1241;60503;-59
2023/10/18 03:28:13;;;;;;;7.20;4.80;;;;;;;-1.74;100.00;97632.04;110146;1243;60512;-57
2023/10/18 03:30:45;;;;;;;7.20;4.80;;;;;;;-1.76;100.00;97633.27;110162;1244;72782;-60
2023/10/18 03:33:19;;;;;;;5.40;3.80;;;;;;;-1.78;100.00;97633.48;110151;1244;69235;-58
2023/10/18 03:36:20;;;;;;;7.00;4.50;;;;;;;-1.81;100.00;97633.53;110113;1243;69431;-58
2023/10/18 03:38:54;;;;;;;6.70;4.70;;;;;;;-1.83;100.00;97633.42;110213;1242;60483;-59
2023/10/18 03:41:25;;;;;;;7.80;5.70;;;;;;;-1.85;100.00;97638.92;110180;1244;60610;-59
2023/10/18 03:44:03;;;;;;;7.40;5.80;;;;;;;-1.86;100.00;97647.65;110166;1244;72107;-59
2023/10/18 03:46:40;;;;;;;6.40;4.30;;;;;;;-1.88;100.00;97648.36;110158;1241;69453;-58
2023/10/18 03:51:58;;;;;;;12.10;7.90;;;;;;;-1.87;100.00;97647.84;110220;1241;60495;-60
2023/10/18 03:54:43;;;;;;;10.70;6.80;;;;;;;-1.87;100.00;97645.11;110419;1241;60548;-58
2023/10/18 03:57:16;;;;;;;13.90;9.10;;;;;;;-1.90;100.00;97647.05;110371;1241;72223;-59
2023/10/18 03:59:46;;;;;;;11.30;8.20;;;;;;;-1.98;100.00;97647.19;110335;1241;69222;-60
2023/10/18 04:02:21;;;;;;;11.90;7.60;;;;;;;-2.04;100.00;97644.77;110303;1242;69542;-58
2023/10/18 04:04:57;;;;;;;11.90;6.50;;;;;;;-2.10;100.00;97640.23;110308;1242;60505;-58
2023/10/18 04:07:29;;;;;;;6.20;4.60;;;;;;;-2.13;100.00;97637.06;110421;1241;60495;-58
2023/10/18 04:12:29;;;;;;;7.00;5.10;;;;;;;-2.18;100.00;97629.46;110382;1242;69261;-59
2023/10/18 04:14:59;;;;;;;9.30;6.80;;;;;;;-2.16;100.00;97631.50;110294;1242;69875;-57
2023/10/18 04:17:36;;;;;;;8.50;5.90;;;;;;;-2.16;100.00;97631.33;110070;1242;60908;-58
2023/10/18 04:20:55;;;;;;;10.00;6.80;;;;;;;-2.17;100.00;97632.19;110100;1242;60449;-58
2023/10/18 04:23:00;;;;;;;19.10;12.30;;;;;;;-2.18;100.00;97630.84;110088;1243;72202;-58
2023/10/18 04:25:33;;;;;;;19.80;14.90;;;;;;;-2.16;100.00;97636.45;110143;1244;67727;-59
2023/10/18 04:28:04;;;;;;;21.30;13.70;;;;;;;-2.14;100.00;97641.19;110116;1244;69316;-59
2023/10/18 04:30:37;;;;;;;22.70;12.00;;;;;;;-2.14;100.00;97639.13;110149;1243;60544;-58
2023/10/18 04:33:24;;;;;;;19.40;11.00;;;;;;;-2.12;100.00;97634.98;110123;1243;60479;-57
2023/10/18 04:36:00;;;;;;;17.20;10.80;;;;;;;-2.12;100.00;97631.58;110136;1243;71614;-59
2023/10/18 04:38:30;;;;;;;16.80;10.60;;;;;;;-2.12;100.00;97631.23;110082;1243;68596;-59
2023/10/18 04:43:32;;;;;;;15.70;8.40;;;;;;;-2.14;100.00;97631.45;110114;1244;60888;-59
2023/10/18 04:46:14;;;;;;;10.70;7.50;;;;;;;-2.14;100.00;97634.52;110173;1240;60479;-60
2023/10/18 04:51:56;;;;;;;9.20;6.50;;;;;;;-2.14;100.00;97637.92;110376;1241;69203;-58
2023/10/18 04:54:35;;;;;;;7.50;5.60;;;;;;;-2.12;100.00;97643.54;110416;1241;69268;-59
2023/10/18 04:57:10;;;;;;;6.30;4.80;;;;;;;-2.09;100.00;97648.60;110152;1243;60566;-58
2023/10/18 04:59:46;;;;;;;6.80;4.60;;;;;;;-2.05;100.00;97652.11;110170;1242;60550;-58
2023/10/18 05:02:17;;;;;;;9.40;6.00;;;;;;;-2.01;100.00;97654.45;110101;1242;72862;-58
2023/10/18 05:04:46;;;;;;;9.40;6.10;;;;;;;-2.00;100.00;97659.70;110154;1241;69662;-58
2023/10/18 05:07:16;;;;;;;9.80;5.70;;;;;;;-1.98;100.00;97658.66;110099;1244;69713;-58
2023/10/18 05:09:55;;;;;;;10.40;6.60;;;;;;;-1.99;100.00;97658.16;110203;1243;60494;-57
2023/10/18 05:17:35;;;;;;;7.50;5.80;;;;;;;-1.89;100.00;97670.27;110224;1243;69908;-57
2023/10/18 05:20:21;;;;;;;8.50;6.60;;;;;;;-1.81;100.00;97667.21;110155;1242;69863;-59
2023/10/18 05:22:52;;;;;;;7.90;5.80;;;;;;;-1.71;100.00;97667.70;110254;1241;60522;-58
2023/10/18 05:25:29;;;;;;;;;;;;;;;-1.61;100.00;97670.41;110459;1242;60499;-58
2023/10/18 05:28:15;;;;;;;8.80;6.20;;;;;;;-1.50;100.00;97666.24;110416;1241;72786;-59
2023/10/18 05:36:58;;;;;;;28.70;15.40;;;;;;;-1.15;100.00;97667.91;110290;1241;60497;-58
2023/10/18 05:39:19;;;;;;;31.30;16.90;;;;;;;-1.04;100.00;97668.83;110204;1242;60495;-59
2023/10/18 05:41:51;;;;;;;26.50;18.30;;;;;;;-1.03;100.00;97674.98;110364;1240;71880;-60
2023/10/18 05:44:20;;;;;;;24.00;15.50;;;;;;;-1.08;100.00;97676.44;110394;1242;69219;-60
2023/10/18 05:46:50;;;;;;;23.00;15.10;;;;;;;-1.06;100.00;97678.12;110442;1242;69855;-59
2023/10/18 05:49:23;;;;;;;20.40;12.80;;;;;;;-1.02;100.00;97678.38;110330;1242;60566;-60
2023/10/18 05:52:17;;;;;;;23.40;16.40;;;;;;;-1.01;100.00;97678.70;110393;1241;60451;-59
2023/10/18 05:54:47;;;;;;;21.20;13.80;;;;;;;-0.97;100.00;97681.00;110494;1242;72774;-59
2023/10/18 05:57:16;;;;;;;20.40;14.00;;;;;;;-0.88;100.00;97680.62;110424;1242;69889;-59
2023/10/18 05:59:48;;;;;;;18.50;12.60;;;;;;;-0.76;100.00;97676.93;110282;1241;69719;-59
2023/10/18 06:02:25;;;;;;;19.60;13.30;;;;;;;-0.62;100.00;97682.92;110292;1242;61534;-60
2023/10/18 06:04:57;;;;;;;17.80;12.10;;;;;;;-0.38;100.00;97680.45;110269;1242;60468;-59
2023/10/18 06:07:28;;;;;;;20.50;14.10;;;;;;;-0.02;100.00;97680.38;110393;1242;72801;-59
2023/10/18 06:10:00;;;;;;;22.70;15.00;;;;;;;0.46;100.00;97677.56;110363;1242;69247;-59
2023/10/18 06:12:37;;;;;;;20.80;15.20;;;;;;;0.92;100.00;97679.80;110302;1240;69857;-60
2023/10/18 06:15:14;;;;;;;22.80;15.20;;;;;;;1.46;100.00;97681.23;110314;1241;60850;-60
2023/10/18 06:23:08;;;;;;;23.70;15.80;;;;;;;3.08;99.68;97690.30;110132;1244;69664;-61
2023/10/18 06:25:44;;;;;;;20.30;14.30;;;;;;;3.66;100.00;97693.71;110281;1242;69864;-61
2023/10/18 06:28:20;;;;;;;18.80;12.80;;;;;;;4.22;97.58;97685.69;110274;1242;60550;-61
2023/10/18 06:30:53;;;;;;;21.30;13.00;;;;;;;4.83;98.34;97686.60;110352;1242;60501;-61
2023/10/18 06:33:23;;;;;;;22.90;15.30;;;;;;;5.46;99.18;97687.65;110365;1242;72154;-61
2023/10/18 06:35:52;;;;;;;25.60;16.50;;;;;;;5.97;96.82;97683.30;110265;1242;69319;-61
2023/10/18 06:38:23;;;;;;;;;;;;;;;6.41;100.00;97683.81;110281;1242;69265;-61
2023/10/18 06:41:00;;;;;;;20.60;14.90;;;;;;;6.88;99.75;97689.15;110302;1242;60502;-59
2023/10/18 06:43:32;;;;;;;;;;;;;;;7.16;86.02;97688.51;110290;1241;60560;-60
2023/10/18 06:46:04;;;;;;;18.90;13.70;;;;;;;7.40;79.38;97688.94;110388;1242;72396;-60
2023/10/18 06:48:34;;;;;;;16.80;14.50;;;;;;;7.89;83.99;97693.45;110350;1242;69289;-61
2023/10/18 06:51:11;;;;;;;16.10;12.00;;;;;;;8.15;77.51;97691.73;110286;1240;69681;-60
2023/10/18 06:53:47;;;;;;;17.70;13.40;;;;;;;8.29;77.28;97689.73;110282;1243;60502;-60
2023/10/18 06:56:19;;;;;;;12.90;11.30;;;;;;;8.51;76.05;97692.08;110299;1242;60482;-60
2023/10/18 06:58:49;;;;;;;12.40;9.70;;;;;;;8.79;74.23;97691.29;110301;1241;72371;-60
2023/10/18 07:02:05;;;;;;;9.90;7.80;;;;;;;8.89;71.68;97683.86;110298;1240;69833;-60
2023/10/18 07:04:18;;;;;;;7.30;6.10;;;;;;;8.89;71.31;97684.17;110189;1242;69298;-61
2023/10/18 07:06:49;;;;;;;6.20;5.50;;;;;;;8.94;67.63;97684.11;110439;1240;60871;-61
2023/10/18 07:09:31;;;;;;;6.80;5.90;;;;;;;8.89;69.02;97685.10;110354;1240;60961;-60
2023/10/18 07:12:04;;;;;;;6.40;4.80;;;;;;;9.19;68.26;97686.52;110437;1241;72801;-61
2023/10/18 07:14:34;;;;;;;5.10;4.20;;;;;;;9.45;64.96;97683.64;110287;1248;68961;-61
2023/10/18 07:17:04;;;;;;;5.80;4.80;;;;;;;9.17;65.23;97685.58;110292;1243;69868;-61
2023/10/18 07:19:41;;;;;;;5.80;4.70;;;;;;;9.36;67.50;97679.36;110405;1241;60505;-61
2023/10/18 07:22:18;;;;;;;7.10;3.70;;;;;;;9.83;64.60;97676.16;110454;1243;60405;-62
2023/10/18 07:24:55;;;;;;;4.10;3.70;;;;;;;9.75;63.50;97677.69;110415;1241;72776;-61
2023/10/18 07:27:29;;;;;;;4.80;3.70;;;;;;;10.30;62.08;97673.73;110375;1242;68165;-61
2023/10/18 07:30:00;;;;;;;5.20;3.40;;;;;;;10.42;61.26;97674.27;110433;1242;68564;-61
2023/10/18 07:32:31;;;;;;;5.10;3.90;;;;;;;11.06;59.41;97677.19;110491;1242;60889;-61
2023/10/18 07:35:01;;;;;;;5.40;3.80;;;;;;;11.67;57.90;97677.71;110499;1241;60483;-62
2023/10/18 07:37:43;;;;;;;4.80;3.50;;;;;;;12.24;55.45;97675.63;110499;1241;71471;-60
2023/10/18 07:40:20;;;;;;;5.00;3.30;;;;;;;12.72;53.03;97670.16;110398;1241;69245;-63
2023/10/18 07:42:52;;;;;;;4.00;3.50;;;;;;;13.17;52.88;97665.48;110393;1242;69334;-61
2023/10/18 07:45:22;;;;;;;5.70;3.80;;;;;;;12.88;52.50;97657.73;110446;1242;60508;-61
2023/10/18 07:47:54;;;;;;;5.50;3.80;;;;;;;13.44;52.38;97655.96;110395;1241;60580;-62
2023/10/18 07:53:12;;;;;;;5.90;4.10;;;;;;;14.11;51.36;97639.82;110510;1242;69256;-63
2023/10/18 07:55:42;;;;;;;5.80;5.00;;;;;;;13.64;50.24;97641.39;110393;1242;68536;-62
2023/10/18 07:58:18;;;;;;;6.40;4.70;;;;;;;13.59;51.63;97642.67;110340;1240;60491;-61
2023/10/18 08:03:31;;;;;;;6.90;5.10;;;;;;;13.39;50.14;97642.01;110324;1242;72244;-61
2023/10/18 08:06:15;;;;;;;7.10;5.10;;;;;;;12.88;51.94;97644.44;110282;1241;69525;-62
2023/10/18 08:08:46;;;;;;;6.70;5.20;;;;;;;13.94;50.90;97643.45;110353;1241;69165;-62
2023/10/18 08:11:16;;;;;;;7.40;5.10;;;;;;;14.29;49.99;97640.23;110277;1241;60473;-61
2023/10/18 08:13:46;;;;;;;8.00;6.40;;;;;;;14.82;48.07;97645.14;110494;1241;60591;-61
2023/10/18 08:16:19;;;;;;;8.20;7.30;;;;;;;15.32;46.51;97641.00;110290;1241;71589;-61
2023/10/18 08:18:52;;;;;;;7.20;6.10;;;;;;;15.70;45.16;97642.33;110385;1240;69571;-62
2023/10/18 08:21:36;;;;;;;6.10;4.60;;;;;;;15.02;45.61;97648.18;110334;1242;69282;-61
2023/10/18 08:24:14;;;;;;;6.50;5.00;;;;;;;15.61;45.48;97646.83;110321;1241;60547;-61
2023/10/18 08:26:48;;;;;;;6.50;5.30;;;;;;;16.30;44.61;97640.27;110422;1241;60502;-62
2023/10/18 08:29:17;;;;;;;7.50;5.30;;;;;;;15.85;44.08;97640.29;110479;1242;72822;-62
2023/10/18 08:31:55;;;;;;;5.30;4.60;;;;;;;15.86;43.88;97637.45;110348;1242;68751;-61
2023/10/18 08:34:25;;;;;;;6.30;4.80;;;;;;;15.65;43.65;97642.26;110274;1240;68356;-60
2023/10/18 08:37:04;;;;;;;;;;;;;;;16.10;43.90;97641.34;110306;1240;60491;-62
2023/10/18 08:39:39;;;;;;;5.60;4.70;;;;;;;16.37;42.70;97640.31;110349;1242;60447;-61
2023/10/18 08:42:14;;;;;;;6.20;4.10;;;;;;;16.18;43.26;97632.20;110341;1242;72221;-61
2023/10/18 08:44:45;;;;;;;6.00;4.50;;;;;;;16.73;41.92;97630.06;110411;1241;68736;-61
2023/10/18 08:47:17;;;;;;;5.90;5.20;;;;;;;16.96;41.57;97632.30;110370;1242;69166;-61
2023/10/18 08:49:51;;;;;;;5.70;4.60;;;;;;;17.02;41.55;97635.61;110368;1241;60547;-61
2023/10/18 08:52:28;;;;;;;5.20;4.70;;;;;;;17.15;41.22;97628.35;110464;1242;60470;-61
2023/10/18 08:55:19;;;;;;;6.40;5.40;;;;;;;16.56;41.35;97630.44;110395;1244;72811;-62
2023/10/18 08:57:57;;;;;;;6.40;5.40;;;;;;;17.74;39.97;97635.69;110133;1244;69207;-62
2023/10/18 09:03:00;;;;;;;6.10;4.50;;;;;;;16.79;40.26;97624.98;110407;1249;60566;-60
2023/10/18 09:05:40;;;;;;;5.70;5.10;;;;;;;17.76;39.42;97628.09;106588;1278;596997;-60
2023/10/18 09:08:19;;;;;;;5.90;5.30;;;;;;;17.77;38.72;97627.77;109184;1257;57700;-61
2023/10/18 09:10:55;;;;;;;6.70;5.30;;;;;;;18.27;38.02;97626.45;109210;1253;57727;-60
2023/10/18 09:13:33;;;;;;;6.40;4.00;;;;;;;18.38;38.70;97625.77;109221;1255;69698;-61
2023/10/18 09:16:04;;;;;;;7.20;5.40;;;;;;;18.64;37.41;97626.80;109150;1255;69852;-60
2023/10/18 09:18:35;;;;;;;5.50;4.90;;;;;;;19.17;36.44;97623.13;108658;1250;772803;-60
2023/10/18 09:21:09;;;;;;;6.20;5.00;;;;;;;19.31;36.23;97620.92;109248;1254;57721;-60
2023/10/18 09:23:40;;;;;;;6.30;4.90;;;;;;;19.17;35.65;97618.80;109406;1254;57709;-60
2023/10/18 09:26:26;;;;;;;5.50;3.80;;;;;;;17.95;36.83;97614.21;109312;1253;69056;-62
2023/10/18 09:28:59;;;;;;;4.80;4.20;;;;;;;18.38;36.10;97606.89;109346;1253;69840;-61
2023/10/18 09:31:29;;;;;;;7.80;4.60;;;;;;;18.82;36.50;97606.82;109306;1254;69861;-60
2023/10/18 09:34:00;;;;;;;6.00;4.00;;;;;;;18.73;36.45;97605.55;109253;1253;58143;-62
2023/10/18 09:36:35;;;;;;;6.20;4.90;;;;;;;19.52;35.61;97606.76;109313;1251;58037;-60
2023/10/18 09:39:13;;;;;;;5.60;4.50;;;;;;;20.68;34.28;97599.10;109318;1253;69796;-61
2023/10/18 09:41:46;;;;;;;4.30;3.70;;;;;;;20.08;33.48;97600.16;109328;1253;69834;-60
2023/10/18 09:44:18;;;;;;;5.50;4.30;;;;;;;20.07;33.87;97601.66;109320;1252;68865;-60
2023/10/18 09:46:48;;;;;;;4.40;3.60;;;;;;;19.24;34.11;97604.09;109372;1250;58072;-60
2023/10/18 09:49:25;;;;;;;6.30;4.40;;;;;;;18.98;35.52;97601.25;109600;1248;58150;-59
2023/10/18 09:52:00;;;;;;;6.30;4.80;;;;;;;19.94;33.69;97596.46;109635;1248;69690;-60
2023/10/18 09:54:36;;;;;;;5.00;3.90;;;;;;;19.32;34.04;97598.01;109649;1248;70105;-60
2023/10/18 09:57:06;;;;;;;5.50;4.20;;;;;;;19.22;34.05;97596.05;109670;1248;69873;-60
2023/10/18 09:59:37;;;;;;;5.40;4.40;;;;;;;20.30;33.31;97581.63;109692;1248;58132;-60
2023/10/18 10:02:15;;;;;;;4.20;3.70;;;;;;;20.77;32.95;97575.92;109694;1248;58137;-62
2023/10/18 10:04:55;;;;;;;5.60;3.70;;;;;;;21.65;32.67;97572.27;109664;1247;68850;-60
2023/10/18 10:07:28;;;;;;;6.80;4.40;;;;;;;22.10;30.98;97565.46;110413;1241;68609;-62
2023/10/18 10:10:09;;;;;;;4.90;4.00;;;;;;;22.72;29.83;97565.52;110417;1243;68841;-61
2023/10/18 10:12:42;;;;;;;5.70;4.40;;;;;;;21.98;30.64;97564.52;110517;1242;58048;-62
2023/10/18 10:15:17;;;;;;;4.50;4.10;;;;;;;21.90;30.64;97558.04;110530;1239;58079;-61
2023/10/18 10:17:58;;;;;;;6.00;4.00;;;;;;;21.37;31.16;97561.00;110370;1240;69496;-61
2023/10/18 10:20:33;;;;;;;6.70;4.80;;;;;;;22.35;30.22;97554.42;110342;1242;69904;-61
2023/10/18 10:23:14;;;;;;;4.90;4.40;;;;;;;22.30;29.66;97546.40;110374;1242;69770;-61
2023/10/18 10:26:11;;;;;;;6.90;5.00;;;;;;;21.78;30.57;97546.32;110333;1241;58022;-62
2023/10/18 10:31:53;;;;;;;5.80;4.60;;;;;;;21.36;30.96;97540.46;110455;1248;70165;-61
2023/10/18 10:34:34;;;;;;;7.30;5.60;;;;;;;22.10;30.66;97534.45;110480;1241;69863;-61
2023/10/18 10:37:23;;;;;;;6.20;5.60;;;;;;;21.08;31.51;97534.16;110396;1242;69336;-61
2023/10/18 10:40:18;;;;;;;11.00;8.00;;;;;;;21.75;31.28;97532.87;110405;1241;58090;-62
2023/10/18 10:42:50;;;;;;;8.80;7.20;;;;;;;21.62;31.57;97526.89;110440;1238;58024;-62
2023/10/18 10:45:38;;;;;;;11.10;8.80;;;;;;;21.29;31.45;97521.82;110392;1241;68862;-61
2023/10/18 10:51:21;;;;;;;7.90;6.90;;;;;;;21.23;32.21;97524.82;110430;1241;69936;-63
2023/10/18 10:53:58;;;;;;;9.00;6.10;;;;;;;22.50;30.65;97527.76;110522;1240;58068;-62
2023/10/18 10:56:27;;;;;;;8.50;7.70;;;;;;;22.94;30.10;97522.08;110404;1241;58537;-61
2023/10/18 11:01:44;;;;;;;7.00;5.90;;;;;;;23.03;29.32;97512.05;110556;1239;69123;-62
2023/10/18 11:04:45;;;;;;;7.40;5.60;;;;;;;23.24;28.52;97506.36;110362;1241;69172;-60
2023/10/18 11:07:24;;;;;;;5.80;4.70;;;;;;;23.98;29.34;97503.15;110240;1242;58139;-59
2023/10/18 11:10:14;;;;;;;6.60;4.90;;;;;;;24.58;27.40;97501.53;110287;1241;58090;-61
2023/10/18 11:12:48;;;;;;;9.40;8.40;;;;;;;24.99;27.02;97496.31;110264;1240;69045;-61
2023/10/18 11:15:18;;;;;;;8.80;7.90;;;;;;;24.76;27.48;97492.21;110273;1241;69877;-62
2023/10/18 11:17:48;;;;;;;13.20;9.30;;;;;;;24.33;27.77;97489.58;110278;1241;69926;-61
2023/10/18 11:20:29;;;;;;;9.10;7.90;;;;;;;23.75;28.33;97487.17;110244;1241;58140;-62
2023/10/18 11:23:00;;;;;;;7.70;6.80;;;;;;;23.48;28.49;97478.41;110247;1242;58118;-60
2023/10/18 11:25:33;;;;;;;7.10;5.90;;;;;;;23.96;28.01;97478.60;110253;1241;69036;-60
2023/10/18 11:28:20;;;;;;;6.60;5.90;;;;;;;24.59;28.22;97478.17;110283;1241;68408;-60
2023/10/18 11:30:53;;;;;;;7.40;5.60;;;;;;;25.12;27.59;97475.61;110310;1241;68534;-60
2023/10/18 11:33:46;;;;;;;10.00;6.70;;;;;;;24.33;27.35;97471.72;110245;1242;58135;-59
2023/10/18 11:36:19;;;;;;;6.70;5.40;;;;;;;24.60;27.10;97470.10;110266;1241;58067;-61
2023/10/18 11:41:37;;;;;;;6.40;5.40;;;;;;;23.45;27.14;97467.05;110283;1242;68194;-58
2023/10/18 11:44:09;;;;;;;6.20;5.00;;;;;;;23.93;27.60;97461.73;110248;1241;69384;-60
2023/10/18 11:47:12;;;;;;;5.60;5.00;;;;;;;23.50;27.44;97460.55;110220;1244;58061;-61
2023/10/18 11:49:42;;;;;;;8.90;5.90;;;;;;;23.84;26.95;97458.43;110275;1239;58057;-60
2023/10/18 11:52:17;;;;;;;5.80;5.20;;;;;;;23.58;26.73;97456.39;110263;1241;70356;-60
2023/10/18 11:54:47;;;;;;;8.10;5.30;;;;;;;24.27;26.80;97451.28;110211;1241;69856;-62
2023/10/18 11:57:24;;;;;;;7.60;6.20;;;;;;;23.47;27.72;97445.92;110237;1241;69899;-61
2023/10/18 12:00:02;;;;;;;5.20;4.30;;;;;;;23.45;27.06;97442.66;110228;1242;58160;-61
2023/10/18 12:02:32;;;;;;;6.70;5.80;;;;;;;24.01;26.90;97442.77;110259;1241;58018;-59
2023/10/18 12:05:05;;;;;;;6.20;5.30;;;;;;;24.11;26.33;97445.55;110276;1242;70369;-61
2023/10/18 12:07:36;;;;;;;7.30;5.40;;;;;;;24.48;26.44;97441.94;110250;1240;69804;-61
2023/10/18 12:10:15;;;;;;;6.20;4.90;;;;;;;24.20;26.37;97437.66;110240;1244;69701;-60
2023/10/18 12:12:46;;;;;;;8.70;5.90;;;;;;;23.84;26.38;97434.40;110232;1242;58127;-61
2023/10/18 12:15:15;;;;;;;6.50;4.90;;;;;;;23.15;26.35;97438.25;110242;1242;58100;-60
2023/10/18 12:17:46;;;;;;;4.60;3.70;;;;;;;24.05;26.58;97432.98;110236;1240;70363;-61
2023/10/18 12:20:15;;;;;;;7.50;5.50;;;;;;;24.36;25.69;97427.07;110239;1242;69891;-62
2023/10/18 12:22:45;;;;;;;5.90;4.80;;;;;;;24.82;25.81;97427.86;110292;1242;69931;-59
2023/10/18 12:25:15;;;;;;;8.10;5.60;;;;;;;25.08;25.01;97423.95;110313;1242;58153;-61
2023/10/18 12:27:52;;;;;;;6.10;5.10;;;;;;;24.34;24.91;97422.75;110248;1241;58089;-63
2023/10/18 12:30:27;;;;;;;6.20;5.30;;;;;;;24.70;24.51;97415.48;110259;1240;69816;-62
2023/10/18 12:33:05;;;;;;;5.10;4.40;;;;;;;24.92;25.27;97412.98;110294;1247;69793;-62
2023/10/18 12:35:37;;;;;;;5.70;3.80;;;;;;;25.33;24.61;97409.52;110277;1245;68780;-61
2023/10/18 12:38:20;;;;;;;5.80;4.10;;;;;;;25.54;23.49;97403.65;110234;1244;58101;-58
2023/10/18 12:40:54;;;;;;;5.90;4.20;;;;;;;25.95;23.47;97402.79;110258;1240;58060;-61
2023/10/18 12:43:31;;;;;;;6.60;4.60;;;;;;;26.19;23.24;97405.55;110358;1242;70159;-61
2023/10/18 12:46:03;;;;;;;6.40;5.00;;;;;;;26.77;22.65;97397.05;110230;1249;69677;-60